Terminal Aerodrome Forecast
Issued by NWS

Home | Current Version | Previous Version | Text Only | Print | Product List | Glossary On
Versions: 1 2 3 4 5 6 7 8 9 10 11 12 13 14
000
FTUS45 KSLC 051010 AAA
TAFPVU
TAF AMD
KPVU 051010Z 0510/0606 12011KT P6SM BKN200
     FM051900 20010G17KT P6SM SCT140 BKN200
     FM060200 14010KT P6SM BKN140 OVC200
      AMD LTD TO CLD VIS AND WIND=

USA.gov is the U.S. government's official web portal to all federal, state and local government web resources and services.